sensor_id;sensor_type;location;lat;lon;timestamp;noise_LAeq;noise_LA_min;noise_LA_max;noise_LA01;noise_LA95
43787;Laerm;29409;49.306;8.500;2024-03-08T00:00:05;39.91;34.31;47.55;;
43787;Laerm;29409;49.306;8.500;2024-03-08T00:01:09;39.88;36.20;44.42;;
43787;Laerm;29409;49.306;8.500;2024-03-08T00:02:10;39.90;36.69;43.19;;
43787;Laerm;29409;49.306;8.500;2024-03-08T00:03:10;40.87;37.12;46.89;;
43787;Laerm;29409;49.306;8.500;2024-03-08T00:04:10;41.98;35.94;53.79;;
43787;Laerm;29409;49.306;8.500;2024-03-08T00:05:11;40.42;35.36;43.54;;
43787;Laerm;29409;49.306;8.500;2024-03-08T00:06:11;40.14;36.69;43.63;;
43787;Laerm;29409;49.306;8.500;2024-03-08T00:07:12;41.04;36.69;47.88;;
43787;Laerm;29409;49.306;8.500;2024-03-08T00:08:13;39.95;35.36;43.49;;
43787;Laerm;29409;49.306;8.500;2024-03-08T00:09:13;39.98;36.45;45.11;;
43787;Laerm;29409;49.306;8.500;2024-03-08T00:10:14;40.89;36.91;46.07;;
43787;Laerm;29409;49.306;8.500;2024-03-08T00:11:14;40.55;35.36;47.86;;
43787;Laerm;29409;49.306;8.500;2024-03-08T00:12:15;39.92;36.45;45.27;;
43787;Laerm;29409;49.306;8.500;2024-03-08T00:13:15;39.98;36.45;42.82;;
43787;Laerm;29409;49.306;8.500;2024-03-08T00:14:15;40.07;35.66;47.50;;
43787;Laerm;29409;49.306;8.500;2024-03-08T00:15:16;40.35;36.91;44.54;;
43787;Laerm;29409;49.306;8.500;2024-03-08T00:16:17;40.48;35.66;52.97;;
43787;Laerm;29409;49.306;8.500;2024-03-08T00:17:19;39.69;35.04;44.35;;
43787;Laerm;29409;49.306;8.500;2024-03-08T00:18:19;39.42;34.69;44.34;;
43787;Laerm;29409;49.306;8.500;2024-03-08T00:19:19;41.09;35.94;50.88;;
43787;Laerm;29409;49.306;8.500;2024-03-08T00:20:19;40.63;36.69;47.70;;
43787;Laerm;29409;49.306;8.500;2024-03-08T00:21:20;39.57;35.66;44.03;;
43787;Laerm;29409;49.306;8.500;2024-03-08T00:22:20;39.84;35.36;46.57;;
43787;Laerm;29409;49.306;8.500;2024-03-08T00:23:22;40.60;35.86;49.12;;
43787;Laerm;29409;49.306;8.500;2024-03-08T00:24:23;39.93;37.12;42.71;;
43787;Laerm;29409;49.306;8.500;2024-03-08T00:25:25;39.41;35.94;42.88;;
43787;Laerm;29409;49.306;8.500;2024-03-08T00:26:25;39.44;35.04;45.01;;
43787;Laerm;29409;49.306;8.500;2024-03-08T00:27:25;39.95;35.04;43.63;;
43787;Laerm;29409;49.306;8.500;2024-03-08T00:28:26;39.92;35.04;45.33;;
43787;Laerm;29409;49.306;8.500;2024-03-08T00:29:27;40.05;35.04;43.58;;
43787;Laerm;29409;49.306;8.500;2024-03-08T00:30:27;39.88;35.94;43.19;;
43787;Laerm;29409;49.306;8.500;2024-03-08T00:31:28;42.49;35.94;59.06;;
43787;Laerm;29409;49.306;8.500;2024-03-08T00:32:30;40.86;35.04;55.47;;
43787;Laerm;29409;49.306;8.500;2024-03-08T00:33:31;41.08;35.66;55.08;;
43787;Laerm;29409;49.306;8.500;2024-03-08T00:34:32;40.40;35.66;50.31;;
43787;Laerm;29409;49.306;8.500;2024-03-08T00:35:32;40.33;35.04;49.92;;
43787;Laerm;29409;49.306;8.500;2024-03-08T00:36:32;40.70;35.94;49.98;;
43787;Laerm;29409;49.306;8.500;2024-03-08T00:37:33;40.09;36.20;47.77;;
43787;Laerm;29409;49.306;8.500;2024-03-08T00:38:34;39.52;35.04;42.88;;
43787;Laerm;29409;49.306;8.500;2024-03-08T00:39:34;40.17;35.66;48.34;;
43787;Laerm;29409;49.306;8.500;2024-03-08T00:40:35;40.22;36.34;49.28;;
43787;Laerm;29409;49.306;8.500;2024-03-08T00:41:35;39.56;36.20;44.07;;
43787;Laerm;29409;49.306;8.500;2024-03-08T00:42:35;40.19;33.97;50.71;;
43787;Laerm;29409;49.306;8.500;2024-03-08T00:43:36;39.49;35.04;52.74;;
43787;Laerm;29409;49.306;8.500;2024-03-08T00:44:36;40.43;36.20;64.23;;
43787;Laerm;29409;49.306;8.500;2024-03-08T00:45:36;40.21;36.20;50.84;;
43787;Laerm;29409;49.306;8.500;2024-03-08T00:46:37;40.37;35.66;50.95;;
43787;Laerm;29409;49.306;8.500;2024-03-08T00:47:38;39.62;35.36;42.98;;
43787;Laerm;29409;49.306;8.500;2024-03-08T00:48:38;39.68;36.45;42.16;;
43787;Laerm;29409;49.306;8.500;2024-03-08T00:49:40;40.06;36.91;42.35;;
43787;Laerm;29409;49.306;8.500;2024-03-08T00:50:41;40.27;36.69;43.34;;
43787;Laerm;29409;49.306;8.500;2024-03-08T00:51:41;40.51;35.94;49.28;;
43787;Laerm;29409;49.306;8.500;2024-03-08T00:52:41;40.19;36.20;49.82;;
43787;Laerm;29409;49.306;8.500;2024-03-08T00:53:42;40.61;35.04;49.97;;
43787;Laerm;29409;49.306;8.500;2024-03-08T00:54:43;40.27;35.36;47.04;;
43787;Laerm;29409;49.306;8.500;2024-03-08T00:55:43;41.13;35.36;48.48;;
43787;Laerm;29409;49.306;8.500;2024-03-08T00:56:46;40.45;35.04;49.73;;
43787;Laerm;29409;49.306;8.500;2024-03-08T00:57:46;39.50;35.66;42.59;;
43787;Laerm;29409;49.306;8.500;2024-03-08T00:58:47;39.61;35.36;42.35;;
43787;Laerm;29409;49.306;8.500;2024-03-08T00:59:47;40.63;35.66;50.18;;
43787;Laerm;29409;49.306;8.500;2024-03-08T01:00:48;40.75;37.52;46.87;;
43787;Laerm;29409;49.306;8.500;2024-03-08T01:01:48;40.58;37.70;43.54;;
43787;Laerm;29409;49.306;8.500;2024-03-08T01:02:49;39.97;36.69;52.50;;
43787;Laerm;29409;49.306;8.500;2024-03-08T01:03:49;40.17;35.36;43.44;;
43787;Laerm;29409;49.306;8.500;2024-03-08T01:04:49;40.40;35.94;46.28;;
43787;Laerm;29409;49.306;8.500;2024-03-08T01:05:50;40.44;35.66;51.91;;
43787;Laerm;29409;49.306;8.500;2024-03-08T01:06:51;43.60;35.04;60.98;;
43787;Laerm;29409;49.306;8.500;2024-03-08T01:07:51;39.81;35.36;44.83;;
43787;Laerm;29409;49.306;8.500;2024-03-08T01:08:52;40.70;36.91;43.99;;
43787;Laerm;29409;49.306;8.500;2024-03-08T01:09:52;40.49;36.20;49.89;;
43787;Laerm;29409;49.306;8.500;2024-03-08T01:10:53;40.92;36.91;51.40;;
43787;Laerm;29409;49.306;8.500;2024-03-08T01:11:56;42.14;38.37;49.41;;
43787;Laerm;29409;49.306;8.500;2024-03-08T01:12:57;40.82;36.45;47.22;;
43787;Laerm;29409;49.306;8.500;2024-03-08T01:13:59;40.48;35.94;48.23;;
43787;Laerm;29409;49.306;8.500;2024-03-08T01:14:59;40.89;35.36;48.60;;
43787;Laerm;29409;49.306;8.500;2024-03-08T01:16:00;39.92;36.20;44.08;;
43787;Laerm;29409;49.306;8.500;2024-03-08T01:17:00;40.18;35.66;48.05;;
43787;Laerm;29409;49.306;8.500;2024-03-08T01:18:00;40.17;36.91;43.14;;
43787;Laerm;29409;49.306;8.500;2024-03-08T01:19:01;41.21;37.70;44.90;;
43787;Laerm;29409;49.306;8.500;2024-03-08T01:20:04;41.24;35.66;48.00;;
43787;Laerm;29409;49.306;8.500;2024-03-08T01:21:04;41.00;36.45;50.28;;
43787;Laerm;29409;49.306;8.500;2024-03-08T01:22:06;40.50;35.94;51.17;;
43787;Laerm;29409;49.306;8.500;2024-03-08T01:23:07;40.26;35.66;44.07;;
43787;Laerm;29409;49.306;8.500;2024-03-08T01:24:08;40.64;35.66;47.36;;
43787;Laerm;29409;49.306;8.500;2024-03-08T01:25:08;39.79;35.66;42.93;;
43787;Laerm;29409;49.306;8.500;2024-03-08T01:26:08;41.30;37.12;49.58;;
43787;Laerm;29409;49.306;8.500;2024-03-08T01:27:09;41.36;36.45;47.76;;
43787;Laerm;29409;49.306;8.500;2024-03-08T01:28:09;40.44;35.66;48.13;;
43787;Laerm;29409;49.306;8.500;2024-03-08T01:29:09;40.71;36.45;45.94;;
43787;Laerm;29409;49.306;8.500;2024-03-08T01:30:10;41.23;34.34;51.53;;
43787;Laerm;29409;49.306;8.500;2024-03-08T01:31:10;40.75;35.36;54.59;;
43787;Laerm;29409;49.306;8.500;2024-03-08T01:32:10;39.72;35.66;42.98;;
43787;Laerm;29409;49.306;8.500;2024-03-08T01:33:12;41.11;36.45;49.75;;
43787;Laerm;29409;49.306;8.500;2024-03-08T01:34:12;40.73;36.91;46.59;;
43787;Laerm;29409;49.306;8.500;2024-03-08T01:35:12;40.15;36.20;43.14;;
43787;Laerm;29409;49.306;8.500;2024-03-08T01:36:13;41.11;35.66;48.70;;
43787;Laerm;29409;49.306;8.500;2024-03-08T01:37:15;39.87;36.20;43.81;;
43787;Laerm;29409;49.306;8.500;2024-03-08T01:38:16;39.78;34.69;45.14;;
43787;Laerm;29409;49.306;8.500;2024-03-08T01:39:16;40.35;35.66;49.28;;
43787;Laerm;29409;49.306;8.500;2024-03-08T01:40:17;39.89;36.69;43.58;;
43787;Laerm;29409;49.306;8.500;2024-03-08T01:41:17;39.63;34.69;41.96;;
43787;Laerm;29409;49.306;8.500;2024-03-08T01:42:17;39.60;35.04;46.20;;
43787;Laerm;29409;49.306;8.500;2024-03-08T01:43:18;39.53;36.69;43.24;;
43787;Laerm;29409;49.306;8.500;2024-03-08T01:44:19;39.76;35.94;44.62;;
43787;Laerm;29409;49.306;8.500;2024-03-08T01:45:20;40.35;36.91;46.45;;
43787;Laerm;29409;49.306;8.500;2024-03-08T01:46:20;40.23;36.91;43.24;;
43787;Laerm;29409;49.306;8.500;2024-03-08T01:47:22;39.93;35.94;45.99;;
43787;Laerm;29409;49.306;8.500;2024-03-08T01:48:25;39.57;35.94;44.19;;
43787;Laerm;29409;49.306;8.500;2024-03-08T01:49:26;39.48;35.94;42.16;;
43787;Laerm;29409;49.306;8.500;2024-03-08T01:50:27;40.38;36.20;42.59;;
43787;Laerm;29409;49.306;8.500;2024-03-08T01:51:28;40.49;36.69;45.11;;
43787;Laerm;29409;49.306;8.500;2024-03-08T01:52:29;41.78;35.04;46.30;;
43787;Laerm;29409;49.306;8.500;2024-03-08T01:53:31;40.96;37.12;51.92;;
43787;Laerm;29409;49.306;8.500;2024-03-08T01:54:32;40.65;36.91;51.40;;
43787;Laerm;29409;49.306;8.500;2024-03-08T01:55:32;46.35;38.37;62.32;;
43787;Laerm;29409;49.306;8.500;2024-03-08T01:56:36;43.24;37.32;56.10;;
43787;Laerm;29409;49.306;8.500;2024-03-08T01:57:37;40.43;37.12;43.29;;
43787;Laerm;29409;49.306;8.500;2024-03-08T01:58:40;40.16;36.91;42.53;;
43787;Laerm;29409;49.306;8.500;2024-03-08T01:59:42;40.88;37.32;57.06;;
43787;Laerm;29409;49.306;8.500;2024-03-08T02:00:46;41.93;36.45;64.64;;
43787;Laerm;29409;49.306;8.500;2024-03-08T02:01:49;40.02;36.45;47.70;;
43787;Laerm;29409;49.306;8.500;2024-03-08T02:02:49;40.16;36.98;43.29;;
43787;Laerm;29409;49.306;8.500;2024-03-08T02:03:54;40.92;36.91;48.49;;
43787;Laerm;29409;49.306;8.500;2024-03-08T02:04:54;40.40;36.20;43.29;;
43787;Laerm;29409;49.306;8.500;2024-03-08T02:05:55;41.88;37.88;47.18;;
43787;Laerm;29409;49.306;8.500;2024-03-08T02:06:55;40.32;37.12;42.41;;
43787;Laerm;29409;49.306;8.500;2024-03-08T02:07:55;40.72;37.88;42.76;;
43787;Laerm;29409;49.306;8.500;2024-03-08T02:08:56;40.26;36.45;43.90;;
43787;Laerm;29409;49.306;8.500;2024-03-08T02:09:57;40.03;36.45;43.68;;
43787;Laerm;29409;49.306;8.500;2024-03-08T02:10:57;42.18;38.37;49.94;;
43787;Laerm;29409;49.306;8.500;2024-03-08T02:11:58;42.02;39.08;49.83;;
43787;Laerm;29409;49.306;8.500;2024-03-08T02:12:59;41.18;37.12;44.54;;
43787;Laerm;29409;49.306;8.500;2024-03-08T02:13:59;41.17;37.12;44.47;;
43787;Laerm;29409;49.306;8.500;2024-03-08T02:14:59;40.32;36.91;47.11;;
43787;Laerm;29409;49.306;8.500;2024-03-08T02:16:00;41.12;35.94;53.51;;
43787;Laerm;29409;49.306;8.500;2024-03-08T02:17:03;40.39;36.91;42.93;;
43787;Laerm;29409;49.306;8.500;2024-03-08T02:18:04;40.31;36.69;43.39;;
43787;Laerm;29409;49.306;8.500;2024-03-08T02:19:04;40.83;37.12;43.19;;
43787;Laerm;29409;49.306;8.500;2024-03-08T02:20:09;41.02;37.88;44.19;;
43787;Laerm;29409;49.306;8.500;2024-03-08T02:21:10;39.97;36.69;43.81;;
43787;Laerm;29409;49.306;8.500;2024-03-08T02:22:10;40.24;36.69;43.58;;
43787;Laerm;29409;49.306;8.500;2024-03-08T02:23:11;40.37;35.94;43.29;;
43787;Laerm;29409;49.306;8.500;2024-03-08T02:24:11;40.07;35.66;45.66;;
43787;Laerm;29409;49.306;8.500;2024-03-08T02:25:11;40.03;34.69;46.78;;
43787;Laerm;29409;49.306;8.500;2024-03-08T02:26:12;40.90;36.91;47.76;;
43787;Laerm;29409;49.306;8.500;2024-03-08T02:27:12;40.48;37.12;45.77;;
43787;Laerm;29409;49.306;8.500;2024-03-08T02:28:13;40.49;36.45;46.87;;
43787;Laerm;29409;49.306;8.500;2024-03-08T02:29:14;39.91;36.69;43.34;;
43787;Laerm;29409;49.306;8.500;2024-03-08T02:30:14;40.15;35.66;46.71;;
43787;Laerm;29409;49.306;8.500;2024-03-08T02:31:16;40.18;36.45;43.58;;
43787;Laerm;29409;49.306;8.500;2024-03-08T02:32:16;39.86;36.69;41.89;;
43787;Laerm;29409;49.306;8.500;2024-03-08T02:33:17;41.71;37.12;51.36;;
43787;Laerm;29409;49.306;8.500;2024-03-08T02:34:17;42.41;37.52;52.96;;
43787;Laerm;29409;49.306;8.500;2024-03-08T02:35:18;40.23;36.45;43.72;;
43787;Laerm;29409;49.306;8.500;2024-03-08T02:36:18;40.25;36.45;42.53;;
43787;Laerm;29409;49.306;8.500;2024-03-08T02:37:18;40.46;36.20;48.80;;
43787;Laerm;29409;49.306;8.500;2024-03-08T02:38:20;40.25;36.20;43.24;;
43787;Laerm;29409;49.306;8.500;2024-03-08T02:39:20;40.66;36.91;47.55;;
43787;Laerm;29409;49.306;8.500;2024-03-08T02:40:20;40.11;37.32;43.39;;
43787;Laerm;29409;49.306;8.500;2024-03-08T02:41:22;40.78;35.94;48.69;;
43787;Laerm;29409;49.306;8.500;2024-03-08T02:42:22;39.86;35.59;42.76;;
43787;Laerm;29409;49.306;8.500;2024-03-08T02:43:23;39.70;36.20;43.04;;
43787;Laerm;29409;49.306;8.500;2024-03-08T02:44:24;41.03;37.12;48.08;;
43787;Laerm;29409;49.306;8.500;2024-03-08T02:45:24;41.05;36.45;44.87;;
43787;Laerm;29409;49.306;8.500;2024-03-08T02:46:25;41.12;38.37;44.47;;
43787;Laerm;29409;49.306;8.500;2024-03-08T02:47:25;42.63;37.88;51.15;;
43787;Laerm;29409;49.306;8.500;2024-03-08T02:48:26;41.12;36.45;46.18;;
43787;Laerm;29409;49.306;8.500;2024-03-08T02:49:26;39.67;36.20;42.22;;
43787;Laerm;29409;49.306;8.500;2024-03-08T02:50:26;39.74;36.91;42.53;;
43787;Laerm;29409;49.306;8.500;2024-03-08T02:51:28;42.13;36.91;51.43;;
43787;Laerm;29409;49.306;8.500;2024-03-08T02:52:28;39.75;35.94;42.88;;
43787;Laerm;29409;49.306;8.500;2024-03-08T02:53:29;39.43;35.04;44.80;;
43787;Laerm;29409;49.306;8.500;2024-03-08T02:54:29;40.10;34.69;45.45;;
43787;Laerm;29409;49.306;8.500;2024-03-08T02:55:29;40.06;35.94;43.54;;
43787;Laerm;29409;49.306;8.500;2024-03-08T02:56:30;40.63;37.52;44.19;;
43787;Laerm;29409;49.306;8.500;2024-03-08T02:57:30;40.74;37.70;42.82;;
43787;Laerm;29409;49.306;8.500;2024-03-08T02:58:30;40.58;37.12;42.79;;
43787;Laerm;29409;49.306;8.500;2024-03-08T02:59:31;41.86;37.52;52.39;;
43787;Laerm;29409;49.306;8.500;2024-03-08T03:00:31;40.77;37.12;43.90;;
43787;Laerm;29409;49.306;8.500;2024-03-08T03:01:33;40.31;36.69;43.04;;
43787;Laerm;29409;49.306;8.500;2024-03-08T03:02:33;39.99;36.69;47.63;;
43787;Laerm;29409;49.306;8.500;2024-03-08T03:03:33;40.26;36.56;45.60;;
43787;Laerm;29409;49.306;8.500;2024-03-08T03:04:34;40.64;36.91;54.45;;
43787;Laerm;29409;49.306;8.500;2024-03-08T03:05:34;40.50;37.12;42.53;;
43787;Laerm;29409;49.306;8.500;2024-03-08T03:06:35;40.13;36.91;42.65;;
43787;Laerm;29409;49.306;8.500;2024-03-08T03:07:35;40.92;37.12;44.83;;
43787;Laerm;29409;49.306;8.500;2024-03-08T03:08:36;40.63;37.12;43.90;;
43787;Laerm;29409;49.306;8.500;2024-03-08T03:09:36;41.54;37.52;51.03;;
43787;Laerm;29409;49.306;8.500;2024-03-08T03:10:36;40.74;36.69;47.10;;
43787;Laerm;29409;49.306;8.500;2024-03-08T03:11:37;40.43;35.94;52.47;;
43787;Laerm;29409;49.306;8.500;2024-03-08T03:12:37;43.28;37.12;56.11;;
43787;Laerm;29409;49.306;8.500;2024-03-08T03:13:38;42.14;38.05;55.75;;
43787;Laerm;29409;49.306;8.500;2024-03-08T03:14:38;41.17;37.88;44.47;;
43787;Laerm;29409;49.306;8.500;2024-03-08T03:15:38;40.93;38.21;43.58;;
43787;Laerm;29409;49.306;8.500;2024-03-08T03:16:41;41.04;36.45;47.10;;
43787;Laerm;29409;49.306;8.500;2024-03-08T03:17:47;43.75;38.37;53.02;;
43787;Laerm;29409;49.306;8.500;2024-03-08T03:18:48;42.88;37.88;55.53;;
43787;Laerm;29409;49.306;8.500;2024-03-08T03:19:49;43.16;38.67;52.31;;
43787;Laerm;29409;49.306;8.500;2024-03-08T03:20:49;41.96;36.91;48.18;;
43787;Laerm;29409;49.306;8.500;2024-03-08T03:21:50;40.97;37.32;43.99;;
43787;Laerm;29409;49.306;8.500;2024-03-08T03:22:52;41.71;35.94;55.93;;
43787;Laerm;29409;49.306;8.500;2024-03-08T03:23:53;40.96;37.70;44.62;;
43787;Laerm;29409;49.306;8.500;2024-03-08T03:24:53;40.79;36.45;43.63;;
43787;Laerm;29409;49.306;8.500;2024-03-08T03:25:53;41.79;35.66;53.42;;
43787;Laerm;29409;49.306;8.500;2024-03-08T03:26:53;40.42;36.69;43.54;;
43787;Laerm;29409;49.306;8.500;2024-03-08T03:27:55;40.37;37.52;43.49;;
43787;Laerm;29409;49.306;8.500;2024-03-08T03:28:58;41.44;36.69;44.15;;
43787;Laerm;29409;49.306;8.500;2024-03-08T03:30:00;41.62;38.21;47.24;;
43787;Laerm;29409;49.306;8.500;2024-03-08T03:31:20;41.69;36.91;46.80;;
43787;Laerm;29409;49.306;8.500;2024-03-08T03:32:24;41.73;38.05;47.77;;
43787;Laerm;29409;49.306;8.500;2024-03-08T03:33:24;41.39;36.91;46.89;;
43787;Laerm;29409;49.306;8.500;2024-03-08T03:34:24;42.80;40.03;46.02;;
43787;Laerm;29409;49.306;8.500;2024-03-08T03:35:25;41.51;38.67;43.19;;
43787;Laerm;29409;49.306;8.500;2024-03-08T03:36:25;41.46;38.81;43.28;;
43787;Laerm;29409;49.306;8.500;2024-03-08T03:37:25;41.04;38.37;43.04;;
43787;Laerm;29409;49.306;8.500;2024-03-08T03:38:25;41.29;37.52;43.44;;
43787;Laerm;29409;49.306;8.500;2024-03-08T03:39:27;41.76;37.52;47.63;;
43787;Laerm;29409;49.306;8.500;2024-03-08T03:40:31;41.67;38.52;47.14;;
43787;Laerm;29409;49.306;8.500;2024-03-08T03:41:32;41.81;37.70;47.20;;
43787;Laerm;29409;49.306;8.500;2024-03-08T03:42:32;42.04;36.69;56.00;;
43787;Laerm;29409;49.306;8.500;2024-03-08T03:43:34;41.17;38.05;43.09;;
43787;Laerm;29409;49.306;8.500;2024-03-08T03:44:34;41.08;38.05;43.39;;
43787;Laerm;29409;49.306;8.500;2024-03-08T03:45:34;41.28;37.88;46.80;;
43787;Laerm;29409;49.306;8.500;2024-03-08T03:46:35;42.80;38.67;49.45;;
43787;Laerm;29409;49.306;8.500;2024-03-08T03:47:35;42.33;38.67;48.90;;
43787;Laerm;29409;49.306;8.500;2024-03-08T03:48:36;42.73;37.12;56.95;;
43787;Laerm;29409;49.306;8.500;2024-03-08T03:49:36;42.37;38.05;54.35;;
43787;Laerm;29409;49.306;8.500;2024-03-08T03:50:36;42.31;38.21;46.57;;
43787;Laerm;29409;49.306;8.500;2024-03-08T03:51:37;41.74;36.45;54.64;;
43787;Laerm;29409;49.306;8.500;2024-03-08T03:52:37;41.21;35.04;44.47;;
43787;Laerm;29409;49.306;8.500;2024-03-08T03:53:37;41.01;38.05;45.60;;
43787;Laerm;29409;49.306;8.500;2024-03-08T03:54:38;42.33;37.88;50.06;;
43787;Laerm;29409;49.306;8.500;2024-03-08T03:55:38;42.36;38.67;49.44;;
43787;Laerm;29409;49.306;8.500;2024-03-08T03:56:38;41.52;36.45;51.55;;
43787;Laerm;29409;49.306;8.500;2024-03-08T03:57:40;42.54;37.88;47.93;;
43787;Laerm;29409;49.306;8.500;2024-03-08T03:58:41;41.63;38.81;47.74;;
43787;Laerm;29409;49.306;8.500;2024-03-08T03:59:41;40.89;37.32;43.63;;
43787;Laerm;29409;49.306;8.500;2024-03-08T04:00:41;42.10;37.87;48.76;;
43787;Laerm;29409;49.306;8.500;2024-03-08T04:01:42;42.29;38.37;47.63;;
43787;Laerm;29409;49.306;8.500;2024-03-08T04:02:43;41.31;37.52;47.26;;
43787;Laerm;29409;49.306;8.500;2024-03-08T04:03:43;41.75;38.05;47.12;;
43787;Laerm;29409;49.306;8.500;2024-03-08T04:04:44;42.29;36.77;47.38;;
43787;Laerm;29409;49.306;8.500;2024-03-08T04:05:46;42.80;38.67;47.79;;
43787;Laerm;29409;49.306;8.500;2024-03-08T04:06:46;42.60;39.34;51.10;;
43787;Laerm;29409;49.306;8.500;2024-03-08T04:07:47;42.67;39.08;54.62;;
43787;Laerm;29409;49.306;8.500;2024-03-08T04:08:47;42.31;38.81;47.26;;
43787;Laerm;29409;49.306;8.500;2024-03-08T04:09:47;41.73;38.21;46.20;;
43787;Laerm;29409;49.306;8.500;2024-03-08T04:10:48;42.11;36.45;45.07;;
43787;Laerm;29409;49.306;8.500;2024-03-08T04:11:48;42.72;39.34;48.16;;
43787;Laerm;29409;49.306;8.500;2024-03-08T04:12:50;42.18;38.95;48.23;;
43787;Laerm;29409;49.306;8.500;2024-03-08T04:13:50;42.73;39.34;50.12;;
43787;Laerm;29409;49.306;8.500;2024-03-08T04:14:50;42.54;39.34;44.97;;
43787;Laerm;29409;49.306;8.500;2024-03-08T04:15:50;44.12;40.80;52.57;;
43787;Laerm;29409;49.306;8.500;2024-03-08T04:16:51;45.77;40.33;58.13;;
43787;Laerm;29409;49.306;8.500;2024-03-08T04:17:51;41.96;36.69;44.27;;
43787;Laerm;29409;49.306;8.500;2024-03-08T04:18:51;42.01;39.08;44.35;;
43787;Laerm;29409;49.306;8.500;2024-03-08T04:19:52;42.35;39.46;48.26;;
43787;Laerm;29409;49.306;8.500;2024-03-08T04:20:52;42.53;38.37;48.08;;
43787;Laerm;29409;49.306;8.500;2024-03-08T04:21:52;41.60;37.32;44.58;;
43787;Laerm;29409;49.306;8.500;2024-03-08T04:22:53;42.14;38.81;54.14;;
43787;Laerm;29409;49.306;8.500;2024-03-08T04:23:53;43.07;39.46;49.29;;
43787;Laerm;29409;49.306;8.500;2024-03-08T04:24:53;42.28;37.12;47.08;;
43787;Laerm;29409;49.306;8.500;2024-03-08T04:25:53;42.25;39.70;46.48;;
43787;Laerm;29409;49.306;8.500;2024-03-08T04:26:54;42.26;39.08;45.51;;
43787;Laerm;29409;49.306;8.500;2024-03-08T04:27:54;42.41;38.05;48.42;;
43787;Laerm;29409;49.306;8.500;2024-03-08T04:28:55;42.14;38.81;47.98;;
43787;Laerm;29409;49.306;8.500;2024-03-08T04:29:55;42.51;39.46;49.07;;
43787;Laerm;29409;49.306;8.500;2024-03-08T04:30:57;42.45;38.52;51.03;;
43787;Laerm;29409;49.306;8.500;2024-03-08T04:31:57;42.92;40.33;49.30;;
43787;Laerm;29409;49.306;8.500;2024-03-08T04:32:58;42.83;39.34;51.97;;
43787;Laerm;29409;49.306;8.500;2024-03-08T04:33:58;45.71;40.03;56.99;;
43787;Laerm;29409;49.306;8.500;2024-03-08T04:34:59;43.73;40.23;49.80;;
43787;Laerm;29409;49.306;8.500;2024-03-08T04:36:01;42.77;38.95;49.73;;
43787;Laerm;29409;49.306;8.500;2024-03-08T04:37:04;46.01;40.71;55.10;;
43787;Laerm;29409;49.306;8.500;2024-03-08T04:38:04;45.06;39.92;55.12;;
43787;Laerm;29409;49.306;8.500;2024-03-08T04:39:05;44.08;41.14;56.13;;
43787;Laerm;29409;49.306;8.500;2024-03-08T04:40:06;43.55;39.23;48.36;;
43787;Laerm;29409;49.306;8.500;2024-03-08T04:41:07;43.15;40.33;47.44;;
43787;Laerm;29409;49.306;8.500;2024-03-08T04:42:07;43.25;38.67;53.12;;
43787;Laerm;29409;49.306;8.500;2024-03-08T04:43:10;42.46;39.92;48.36;;
43787;Laerm;29409;49.306;8.500;2024-03-08T04:44:11;42.39;39.08;48.84;;
43787;Laerm;29409;49.306;8.500;2024-03-08T04:45:12;43.38;38.95;48.02;;
43787;Laerm;29409;49.306;8.500;2024-03-08T04:46:13;42.78;40.33;45.20;;
43787;Laerm;29409;49.306;8.500;2024-03-08T04:47:14;42.59;40.03;48.08;;
43787;Laerm;29409;49.306;8.500;2024-03-08T04:48:14;50.39;39.46;65.04;;
43787;Laerm;29409;49.306;8.500;2024-03-08T04:49:15;41.78;37.32;45.36;;
43787;Laerm;29409;49.306;8.500;2024-03-08T04:50:15;42.01;39.70;43.63;;
43787;Laerm;29409;49.306;8.500;2024-03-08T04:51:16;41.91;39.08;45.23;;
43787;Laerm;29409;49.306;8.500;2024-03-08T04:52:16;42.67;39.21;47.83;;
43787;Laerm;29409;49.306;8.500;2024-03-08T04:53:16;43.61;38.81;54.18;;
43787;Laerm;29409;49.306;8.500;2024-03-08T04:54:17;43.34;39.34;47.74;;
43787;Laerm;29409;49.306;8.500;2024-03-08T04:55:18;42.01;39.46;43.99;;
43787;Laerm;29409;49.306;8.500;2024-03-08T04:56:21;42.22;39.46;44.54;;
43787;Laerm;29409;49.306;8.500;2024-03-08T04:57:21;42.76;40.23;45.17;;
43787;Laerm;29409;49.306;8.500;2024-03-08T04:58:21;43.62;39.70;47.06;;
43787;Laerm;29409;49.306;8.500;2024-03-08T04:59:22;43.58;40.79;51.54;;
43787;Laerm;29409;49.306;8.500;2024-03-08T05:00:22;42.25;39.46;45.17;;
43787;Laerm;29409;49.306;8.500;2024-03-08T05:01:22;44.48;40.23;54.48;;
43787;Laerm;29409;49.306;8.500;2024-03-08T05:02:22;42.86;39.70;47.28;;
43787;Laerm;29409;49.306;8.500;2024-03-08T05:03:23;44.20;40.98;52.51;;
43787;Laerm;29409;49.306;8.500;2024-03-08T05:04:26;42.52;39.34;46.18;;
43787;Laerm;29409;49.306;8.500;2024-03-08T05:05:26;42.51;40.03;46.59;;
43787;Laerm;29409;49.306;8.500;2024-03-08T05:06:28;42.37;39.08;52.48;;
43787;Laerm;29409;49.306;8.500;2024-03-08T05:07:30;43.58;40.13;52.64;;
43787;Laerm;29409;49.306;8.500;2024-03-08T05:08:31;42.48;38.95;49.84;;
43787;Laerm;29409;49.306;8.500;2024-03-08T05:09:31;42.67;39.34;46.43;;
43787;Laerm;29409;49.306;8.500;2024-03-08T05:10:32;45.13;40.98;52.30;;
43787;Laerm;29409;49.306;8.500;2024-03-08T05:11:32;44.02;40.53;49.44;;
43787;Laerm;29409;49.306;8.500;2024-03-08T05:12:33;43.54;40.62;48.69;;
43787;Laerm;29409;49.306;8.500;2024-03-08T05:13:33;43.81;39.81;50.28;;
43787;Laerm;29409;49.306;8.500;2024-03-08T05:14:34;44.05;40.13;50.56;;
43787;Laerm;29409;49.306;8.500;2024-03-08T05:15:35;44.82;40.62;50.53;;
43787;Laerm;29409;49.306;8.500;2024-03-08T05:16:36;43.46;40.71;49.02;;
43787;Laerm;29409;49.306;8.500;2024-03-08T05:17:36;43.06;40.43;48.25;;
43787;Laerm;29409;49.306;8.500;2024-03-08T05:18:37;44.54;40.89;55.58;;
43787;Laerm;29409;49.306;8.500;2024-03-08T05:19:37;47.04;42.35;55.08;;
43787;Laerm;29409;49.306;8.500;2024-03-08T05:20:38;45.03;39.99;53.61;;
43787;Laerm;29409;49.306;8.500;2024-03-08T05:21:39;44.21;41.22;49.67;;
43787;Laerm;29409;49.306;8.500;2024-03-08T05:22:39;44.24;39.21;50.30;;
43787;Laerm;29409;49.306;8.500;2024-03-08T05:23:42;46.01;41.22;53.13;;
43787;Laerm;29409;49.306;8.500;2024-03-08T05:24:42;43.76;39.92;50.96;;
43787;Laerm;29409;49.306;8.500;2024-03-08T05:25:43;44.05;40.71;50.72;;
43787;Laerm;29409;49.306;8.500;2024-03-08T05:26:43;42.57;40.23;47.23;;
43787;Laerm;29409;49.306;8.500;2024-03-08T05:27:43;43.47;39.81;49.98;;
43787;Laerm;29409;49.306;8.500;2024-03-08T05:28:44;43.73;40.43;55.66;;
43787;Laerm;29409;49.306;8.500;2024-03-08T05:29:44;44.63;40.98;54.70;;
43787;Laerm;29409;49.306;8.500;2024-03-08T05:30:46;45.53;41.53;53.64;;
43787;Laerm;29409;49.306;8.500;2024-03-08T05:31:49;45.81;42.47;52.93;;
43787;Laerm;29409;49.306;8.500;2024-03-08T05:32:50;44.05;41.30;50.25;;
43787;Laerm;29409;49.306;8.500;2024-03-08T05:33:50;45.65;40.62;54.37;;
43787;Laerm;29409;49.306;8.500;2024-03-08T05:34:50;44.18;40.80;50.69;;
43787;Laerm;29409;49.306;8.500;2024-03-08T05:35:51;43.71;40.62;48.60;;
43787;Laerm;29409;49.306;8.500;2024-03-08T05:36:53;45.62;42.71;52.19;;
43787;Laerm;29409;49.306;8.500;2024-03-08T05:37:54;44.01;40.53;58.12;;
43787;Laerm;29409;49.306;8.500;2024-03-08T05:38:54;45.21;40.43;51.21;;
43787;Laerm;29409;49.306;8.500;2024-03-08T05:39:55;44.93;41.82;52.90;;